createdAt,value
2022-10-13T00:02:29.574Z,100.00
2022-10-13T00:05:15.245Z,100.00
2022-10-13T00:08:00.966Z,100.00
2022-10-13T00:10:48.250Z,100.00
2022-10-13T00:13:33.750Z,100.00
2022-10-13T00:16:21.603Z,100.00
2022-10-13T00:19:06.645Z,100.00
2022-10-13T00:21:52.039Z,100.00
2022-10-13T00:24:37.008Z,100.00
2022-10-13T00:27:22.522Z,100.00
2022-10-13T00:30:07.958Z,100.00
2022-10-13T00:32:52.860Z,100.00
2022-10-13T00:35:49.110Z,100.00
2022-10-13T00:38:34.265Z,100.00
2022-10-13T00:41:20.267Z,100.00
2022-10-13T00:44:07.494Z,100.00
2022-10-13T00:46:52.399Z,100.00
2022-10-13T00:49:37.396Z,100.00
2022-10-13T00:52:25.301Z,100.00
2022-10-13T00:55:13.325Z,100.00
2022-10-13T00:58:05.123Z,100.00
2022-10-13T01:00:52.661Z,100.00
2022-10-13T01:03:38.550Z,100.00
2022-10-13T01:06:24.369Z,100.00
2022-10-13T01:09:09.432Z,100.00
2022-10-13T01:12:25.695Z,100.00
2022-10-13T01:15:16.798Z,100.00
2022-10-13T01:18:30.249Z,100.00
2022-10-13T01:21:15.210Z,100.00
2022-10-13T01:24:19.063Z,100.00
2022-10-13T01:27:12.674Z,100.00
2022-10-13T01:30:28.130Z,100.00
2022-10-13T01:33:45.473Z,100.00
2022-10-13T01:36:38.579Z,100.00
2022-10-13T01:39:26.774Z,100.00
2022-10-13T01:42:19.638Z,100.00
2022-10-13T01:45:09.378Z,100.00
2022-10-13T01:47:56.006Z,100.00
2022-10-13T01:50:41.540Z,100.00
2022-10-13T01:53:27.442Z,100.00
2022-10-13T01:56:12.584Z,100.00
2022-10-13T01:59:01.994Z,100.00
2022-10-13T02:01:53.131Z,100.00
2022-10-13T02:04:47.442Z,100.00
2022-10-13T02:07:46.778Z,100.00
2022-10-13T02:10:40.271Z,100.00
2022-10-13T02:13:28.171Z,100.00
2022-10-13T02:16:15.023Z,100.00
2022-10-13T02:19:03.086Z,100.00
2022-10-13T02:21:48.676Z,100.00
2022-10-13T02:24:33.622Z,100.00
2022-10-13T02:27:19.210Z,100.00
2022-10-13T02:30:05.458Z,100.00
2022-10-13T02:32:50.661Z,100.00
2022-10-13T02:35:35.759Z,100.00
2022-10-13T02:38:20.758Z,100.00
2022-10-13T02:41:06.410Z,100.00
2022-10-13T02:43:51.372Z,100.00
2022-10-13T02:46:36.215Z,100.00
2022-10-13T02:49:21.074Z,100.00
2022-10-13T02:52:07.006Z,100.00
2022-10-13T02:54:51.806Z,100.00
2022-10-13T02:57:36.740Z,100.00
2022-10-13T03:00:23.942Z,100.00
2022-10-13T03:03:09.816Z,100.00
2022-10-13T03:05:55.049Z,100.00
2022-10-13T03:08:39.851Z,100.00
2022-10-13T03:11:25.416Z,100.00
2022-10-13T03:14:10.579Z,100.00
2022-10-13T03:16:55.486Z,100.00
2022-10-13T03:19:40.476Z,100.00
2022-10-13T03:22:25.519Z,100.00
2022-10-13T03:25:11.083Z,100.00
2022-10-13T03:27:56.335Z,100.00
2022-10-13T03:30:42.210Z,100.00
2022-10-13T03:33:27.500Z,100.00
2022-10-13T03:36:12.974Z,100.00
2022-10-13T03:38:58.260Z,100.00
2022-10-13T03:41:43.130Z,100.00
2022-10-13T03:44:28.209Z,100.00
2022-10-13T03:47:13.360Z,100.00
2022-10-13T03:49:58.317Z,100.00
2022-10-13T03:52:43.310Z,100.00
2022-10-13T03:55:28.168Z,100.00
2022-10-13T03:58:13.036Z,100.00
2022-10-13T04:01:03.887Z,100.00
2022-10-13T04:03:50.049Z,100.00
2022-10-13T04:06:35.202Z,100.00
2022-10-13T04:09:20.550Z,100.00
2022-10-13T04:12:06.193Z,100.00
2022-10-13T04:14:51.312Z,100.00
2022-10-13T04:17:36.204Z,100.00
2022-10-13T04:20:21.228Z,100.00
2022-10-13T04:23:07.216Z,100.00
2022-10-13T04:25:52.431Z,100.00
2022-10-13T04:28:39.710Z,100.00
2022-10-13T04:31:24.966Z,100.00
2022-10-13T04:34:10.826Z,100.00
2022-10-13T04:36:55.909Z,100.00
2022-10-13T04:39:40.878Z,100.00
2022-10-13T04:42:25.800Z,100.00
2022-10-13T04:45:11.245Z,100.00
2022-10-13T04:47:56.328Z,100.00
2022-10-13T04:50:41.298Z,100.00
2022-10-13T04:53:27.713Z,100.00
2022-10-13T04:56:17.550Z,100.00
2022-10-13T04:59:05.449Z,100.00
2022-10-13T05:01:50.549Z,100.00
2022-10-13T05:04:36.103Z,100.00
2022-10-13T05:07:20.938Z,100.00
2022-10-13T05:10:06.239Z,100.00
2022-10-13T05:12:52.707Z,100.00
2022-10-13T05:15:39.308Z,100.00
2022-10-13T05:18:24.942Z,100.00
2022-10-13T05:21:13.325Z,100.00
2022-10-13T05:23:58.992Z,100.00
2022-10-13T05:26:44.149Z,100.00
2022-10-13T05:29:29.084Z,100.00
2022-10-13T05:32:14.490Z,100.00
2022-10-13T05:34:59.383Z,100.00
2022-10-13T05:37:44.257Z,100.00
2022-10-13T05:40:29.616Z,100.00
2022-10-13T05:43:15.148Z,100.00
2022-10-13T05:46:01.213Z,100.00
2022-10-13T05:48:46.327Z,100.00
2022-10-13T05:51:37.639Z,100.00
2022-10-13T05:54:32.060Z,100.00
2022-10-13T05:57:26.147Z,100.00
2022-10-13T06:00:15.285Z,100.00
2022-10-13T06:03:14.490Z,100.00
2022-10-13T06:05:59.508Z,100.00
2022-10-13T06:08:44.718Z,100.00
2022-10-13T06:11:29.859Z,100.00
2022-10-13T06:14:14.683Z,100.00
2022-10-13T06:16:59.740Z,100.00
2022-10-13T06:19:44.545Z,100.00
2022-10-13T06:22:29.524Z,100.00
2022-10-13T06:25:14.777Z,100.00
2022-10-13T06:28:00.184Z,100.00
2022-10-13T06:30:45.938Z,100.00
2022-10-13T06:33:31.160Z,100.00
2022-10-13T06:36:16.819Z,100.00
2022-10-13T06:39:01.712Z,100.00
2022-10-13T06:41:46.748Z,100.00
2022-10-13T06:44:32.276Z,100.00
2022-10-13T06:47:17.435Z,100.00
2022-10-13T06:50:02.969Z,100.00
2022-10-13T06:52:48.504Z,100.00
2022-10-13T06:55:33.693Z,100.00
2022-10-13T06:58:18.982Z,100.00
2022-10-13T07:01:05.830Z,100.00
2022-10-13T07:03:51.899Z,100.00
2022-10-13T07:06:37.165Z,100.00
2022-10-13T07:09:22.229Z,100.00
2022-10-13T07:12:07.589Z,100.00
2022-10-13T07:14:52.713Z,100.00
2022-10-13T07:17:37.750Z,100.00
2022-10-13T07:20:24.809Z,100.00
2022-10-13T07:23:10.298Z,100.00
2022-10-13T07:25:55.797Z,100.00
2022-10-13T07:28:40.956Z,100.00
2022-10-13T07:31:27.379Z,100.00
2022-10-13T07:34:14.033Z,100.00
2022-10-13T07:36:59.065Z,100.00
2022-10-13T07:39:44.119Z,100.00
2022-10-13T07:42:29.701Z,100.00
2022-10-13T07:45:16.232Z,100.00
2022-10-13T07:48:01.372Z,100.00
2022-10-13T07:50:46.394Z,100.00
2022-10-13T07:53:31.862Z,100.00
2022-10-13T07:56:17.167Z,100.00
2022-10-13T07:59:03.087Z,100.00
2022-10-13T08:01:48.626Z,100.00
2022-10-13T08:04:34.909Z,100.00
2022-10-13T08:07:20.773Z,100.00
2022-10-13T08:10:10.030Z,100.00
2022-10-13T08:12:55.553Z,100.00
2022-10-13T08:15:42.280Z,100.00
2022-10-13T08:18:28.753Z,100.00
2022-10-13T08:24:21.408Z,100.00
2022-10-13T08:27:06.416Z,100.00
2022-10-13T08:29:55.232Z,100.00
2022-10-13T08:32:40.407Z,100.00
2022-10-13T08:35:25.751Z,100.00
2022-10-13T08:38:13.859Z,100.00
2022-10-13T08:41:02.483Z,100.00
2022-10-13T08:44:32.974Z,100.00
2022-10-13T08:47:30.021Z,100.00
2022-10-13T08:50:19.225Z,100.00
2022-10-13T08:53:12.794Z,100.00
2022-10-13T08:56:04.982Z,100.00
2022-10-13T08:58:52.223Z,100.00
2022-10-13T09:01:37.755Z,99.17
2022-10-13T09:04:26.166Z,99.31
2022-10-13T09:07:18.593Z,99.39
2022-10-13T09:10:04.896Z,98.52
2022-10-13T09:12:49.930Z,97.18
2022-10-13T09:15:44.698Z,97.36
2022-10-13T09:18:32.485Z,97.34
2022-10-13T09:21:24.645Z,96.25
2022-10-13T09:24:17.788Z,95.88
2022-10-13T09:27:12.453Z,94.82
2022-10-13T09:29:57.323Z,93.22
2022-10-13T09:32:42.073Z,93.06
2022-10-13T09:35:27.106Z,93.05
2022-10-13T09:38:15.333Z,93.19
2022-10-13T09:41:02.836Z,91.97
2022-10-13T09:43:47.891Z,92.06
2022-10-13T09:46:37.984Z,92.19
2022-10-13T09:49:39.507Z,89.93
2022-10-13T09:52:24.936Z,90.29
2022-10-13T09:55:32.601Z,89.05
2022-10-13T09:58:30.948Z,88.97
2022-10-13T10:01:25.455Z,88.40
2022-10-13T10:04:16.404Z,88.57
2022-10-13T10:07:09.564Z,88.89
2022-10-13T10:09:59.442Z,87.24
2022-10-13T10:12:45.097Z,87.99
2022-10-13T10:15:43.181Z,87.19
2022-10-13T10:18:46.540Z,87.09
2022-10-13T10:21:48.602Z,87.12
2022-10-13T10:24:36.436Z,86.16
2022-10-13T10:27:28.153Z,85.39
2022-10-13T10:30:16.244Z,85.57
2022-10-13T10:33:12.015Z,85.98
2022-10-13T10:36:17.702Z,85.45
2022-10-13T10:39:15.360Z,85.27
2022-10-13T10:42:20.357Z,86.69
2022-10-13T10:45:18.021Z,85.54
2022-10-13T10:48:23.459Z,86.93
2022-10-13T10:51:11.089Z,86.15
2022-10-13T10:54:20.065Z,86.68
2022-10-13T10:57:47.685Z,85.40
2022-10-13T11:00:48.358Z,85.20
2022-10-13T11:03:52.107Z,85.71
2022-10-13T11:06:38.474Z,83.69
2022-10-13T11:09:42.179Z,83.49
2022-10-13T11:12:51.762Z,83.15
2022-10-13T11:15:45.148Z,82.87
2022-10-13T11:18:54.876Z,82.71
2022-10-13T11:21:58.574Z,82.29
2022-10-13T11:24:59.636Z,82.26
2022-10-13T11:27:44.889Z,82.12
2022-10-13T11:30:45.576Z,81.85
2022-10-13T11:33:39.988Z,81.95
2022-10-13T11:36:32.821Z,82.03
2022-10-13T11:39:21.054Z,81.71
2022-10-13T11:42:48.654Z,80.90
2022-10-13T11:46:09.593Z,81.20
2022-10-13T11:49:39.593Z,81.12
2022-10-13T11:52:46.368Z,80.21
2022-10-13T11:55:50.914Z,79.50
2022-10-13T11:58:42.196Z,79.51
2022-10-13T12:01:27.380Z,79.99
2022-10-13T12:04:15.162Z,81.38
2022-10-13T12:07:11.878Z,79.22
2022-10-13T12:09:57.705Z,78.13
2022-10-13T12:12:48.315Z,78.00
2022-10-13T12:15:35.637Z,77.67
2022-10-13T12:18:27.371Z,78.48
2022-10-13T12:21:22.348Z,78.25
2022-10-13T12:24:10.087Z,77.72
2022-10-13T12:26:56.477Z,77.61
2022-10-13T12:29:41.845Z,77.37
2022-10-13T12:32:33.630Z,77.96
2022-10-13T12:35:26.874Z,78.36
2022-10-13T12:38:19.231Z,78.49
2022-10-13T12:41:05.529Z,77.92
2022-10-13T12:43:51.587Z,78.46
2022-10-13T12:46:50.472Z,79.01
2022-10-13T12:49:36.915Z,75.20
2022-10-13T12:52:24.677Z,69.62
2022-10-13T12:55:16.245Z,70.08
2022-10-13T12:58:02.271Z,71.67
2022-10-13T13:00:55.748Z,70.95
2022-10-13T13:03:43.206Z,70.89
2022-10-13T13:06:32.831Z,70.20
2022-10-13T13:09:40.820Z,68.64
2022-10-13T13:12:28.140Z,70.21
2022-10-13T13:15:25.612Z,71.56
2022-10-13T13:18:26.420Z,69.82
2022-10-13T13:21:14.516Z,68.59
2022-10-13T13:24:01.489Z,70.33
2022-10-13T13:26:50.779Z,71.50
2022-10-13T13:29:38.106Z,72.95
2022-10-13T13:32:25.490Z,73.20
2022-10-13T13:35:11.119Z,72.05
2022-10-13T13:37:56.408Z,71.46
2022-10-13T13:40:41.461Z,72.80
2022-10-13T13:43:26.722Z,72.51
2022-10-13T13:46:30.241Z,72.14
2022-10-13T13:49:17.612Z,72.18
2022-10-13T13:52:03.074Z,73.09
2022-10-13T13:54:49.674Z,72.92
2022-10-13T13:57:34.652Z,72.28
2022-10-13T14:00:20.056Z,73.45
2022-10-13T14:03:05.611Z,73.17
2022-10-13T14:05:51.061Z,73.57
2022-10-13T14:08:36.792Z,73.90
2022-10-13T14:11:22.270Z,74.65
2022-10-13T14:14:07.384Z,74.85
2022-10-13T14:16:52.800Z,73.31
2022-10-13T14:19:38.149Z,74.15
2022-10-13T14:22:26.869Z,74.04
2022-10-13T14:25:12.316Z,74.02
2022-10-13T14:27:57.688Z,74.69
2022-10-13T14:30:42.945Z,74.92
2022-10-13T14:33:27.779Z,75.16
2022-10-13T14:36:14.834Z,75.11
2022-10-13T14:39:03.628Z,75.45
2022-10-13T14:41:49.151Z,75.04
2022-10-13T14:44:34.718Z,75.87
2022-10-13T14:47:20.378Z,75.45
2022-10-13T14:50:06.322Z,76.26
2022-10-13T14:52:51.907Z,76.98
2022-10-13T14:55:37.162Z,76.67
2022-10-13T14:58:22.610Z,77.09
2022-10-13T15:01:09.239Z,77.78
2022-10-13T15:03:54.925Z,78.48
2022-10-13T15:06:41.577Z,78.25
2022-10-13T15:09:38.682Z,79.15
2022-10-13T15:12:34.059Z,78.55
2022-10-13T15:15:20.943Z,78.58
2022-10-13T15:18:06.217Z,79.60
2022-10-13T15:20:52.565Z,79.22
2022-10-13T15:23:38.043Z,81.98
2022-10-13T15:26:23.314Z,84.76
2022-10-13T15:29:08.607Z,89.77
2022-10-13T15:32:08.019Z,97.50
2022-10-13T15:34:53.795Z,100.00
2022-10-13T15:37:39.050Z,100.00
2022-10-13T15:40:25.024Z,100.00
2022-10-13T15:43:11.096Z,100.00
2022-10-13T15:46:01.292Z,100.00
2022-10-13T15:48:48.099Z,100.00
2022-10-13T15:51:33.997Z,100.00
2022-10-13T15:54:21.185Z,100.00
2022-10-13T15:57:06.551Z,100.00
2022-10-13T15:59:51.810Z,100.00
2022-10-13T16:02:37.258Z,100.00
2022-10-13T16:05:22.528Z,100.00
2022-10-13T16:08:07.801Z,100.00
2022-10-13T16:10:53.069Z,100.00
2022-10-13T16:13:39.444Z,100.00
2022-10-13T16:16:24.798Z,100.00
2022-10-13T16:19:10.464Z,100.00
2022-10-13T16:21:55.612Z,100.00
2022-10-13T16:24:40.581Z,100.00
2022-10-13T16:27:25.613Z,100.00
2022-10-13T16:30:13.951Z,100.00
2022-10-13T16:33:01.559Z,100.00
2022-10-13T16:35:49.486Z,100.00
2022-10-13T16:38:35.037Z,100.00
2022-10-13T16:41:20.558Z,100.00
2022-10-13T16:44:05.976Z,100.00
2022-10-13T16:46:51.241Z,100.00
2022-10-13T16:49:36.571Z,100.00
2022-10-13T16:52:21.716Z,100.00
2022-10-13T16:55:07.800Z,100.00
2022-10-13T16:57:53.061Z,100.00
2022-10-13T17:00:39.360Z,100.00
2022-10-13T17:03:24.382Z,100.00
2022-10-13T17:06:10.940Z,100.00
2022-10-13T17:09:00.415Z,100.00
2022-10-13T17:11:45.639Z,100.00
2022-10-13T17:14:30.824Z,100.00
2022-10-13T17:17:16.259Z,100.00
2022-10-13T17:20:04.999Z,100.00
2022-10-13T17:22:58.043Z,100.00
2022-10-13T17:25:43.661Z,100.00
2022-10-13T17:28:34.976Z,100.00
2022-10-13T17:31:22.724Z,100.00
2022-10-13T17:34:11.075Z,100.00
2022-10-13T17:36:56.039Z,100.00
2022-10-13T17:39:40.889Z,100.00
2022-10-13T17:42:29.751Z,100.00
2022-10-13T17:45:15.359Z,100.00
2022-10-13T17:48:00.544Z,100.00
2022-10-13T17:50:45.722Z,100.00
2022-10-13T17:53:31.671Z,100.00
2022-10-13T17:56:19.605Z,100.00
2022-10-13T17:59:04.597Z,100.00
2022-10-13T18:01:49.646Z,100.00
2022-10-13T18:04:35.083Z,100.00
2022-10-13T18:07:20.737Z,100.00
2022-10-13T18:10:08.513Z,100.00
2022-10-13T18:12:53.759Z,100.00
2022-10-13T18:15:39.173Z,100.00
2022-10-13T18:18:24.682Z,100.00
2022-10-13T18:21:11.713Z,100.00
2022-10-13T18:23:59.355Z,100.00
2022-10-13T18:26:44.666Z,100.00
2022-10-13T18:29:32.958Z,100.00
2022-10-13T18:32:18.326Z,100.00
2022-10-13T18:35:04.068Z,100.00
2022-10-13T18:37:54.056Z,100.00
2022-10-13T18:40:39.029Z,100.00
2022-10-13T18:43:24.160Z,100.00
2022-10-13T18:46:10.063Z,100.00
2022-10-13T18:48:58.828Z,100.00
2022-10-13T18:51:43.976Z,100.00
2022-10-13T18:54:30.641Z,100.00
2022-10-13T18:57:17.987Z,100.00
2022-10-13T19:00:04.700Z,100.00
2022-10-13T19:02:49.839Z,100.00
2022-10-13T19:05:41.751Z,100.00
2022-10-13T19:08:28.643Z,100.00
2022-10-13T19:11:21.059Z,100.00
2022-10-13T19:14:08.278Z,100.00
2022-10-13T19:16:56.112Z,100.00
2022-10-13T19:19:44.627Z,100.00
2022-10-13T19:22:29.684Z,100.00
2022-10-13T19:25:15.475Z,100.00
2022-10-13T19:28:01.949Z,100.00
2022-10-13T19:30:49.484Z,100.00
2022-10-13T19:33:43.481Z,100.00
2022-10-13T19:36:33.326Z,100.00
2022-10-13T19:39:24.429Z,100.00
2022-10-13T19:42:10.007Z,100.00
2022-10-13T19:44:54.975Z,100.00
2022-10-13T19:47:41.277Z,100.00
2022-10-13T19:50:26.559Z,100.00
2022-10-13T19:53:11.819Z,100.00
2022-10-13T19:55:57.138Z,100.00
2022-10-13T19:58:42.733Z,100.00
2022-10-13T20:01:28.318Z,100.00
2022-10-13T20:04:14.978Z,100.00
2022-10-13T20:06:59.844Z,100.00
2022-10-13T20:09:45.527Z,100.00
2022-10-13T20:12:30.682Z,100.00
2022-10-13T20:15:16.251Z,100.00
2022-10-13T20:18:01.500Z,100.00
2022-10-13T20:20:46.949Z,100.00
2022-10-13T20:23:32.843Z,100.00
2022-10-13T20:26:19.433Z,100.00
2022-10-13T20:29:07.870Z,100.00
2022-10-13T20:31:52.946Z,100.00
2022-10-13T20:34:37.891Z,100.00
2022-10-13T20:37:26.261Z,100.00
2022-10-13T20:40:11.671Z,100.00
2022-10-13T20:42:58.134Z,100.00
2022-10-13T20:45:43.461Z,100.00
2022-10-13T20:48:40.717Z,100.00
2022-10-13T20:51:36.145Z,100.00
2022-10-13T20:54:21.141Z,100.00
2022-10-13T20:57:06.615Z,100.00
2022-10-13T20:59:52.021Z,100.00
2022-10-13T21:02:37.067Z,100.00
2022-10-13T21:05:22.264Z,100.00
2022-10-13T21:08:07.205Z,100.00
2022-10-13T21:10:52.231Z,100.00
2022-10-13T21:13:39.372Z,100.00
2022-10-13T21:16:27.636Z,100.00
2022-10-13T21:19:12.708Z,100.00
2022-10-13T21:21:57.656Z,100.00
2022-10-13T21:24:42.668Z,100.00
2022-10-13T21:27:28.193Z,100.00
2022-10-13T21:30:13.861Z,100.00
2022-10-13T21:32:59.138Z,100.00
2022-10-13T21:35:44.045Z,100.00
2022-10-13T21:38:29.243Z,100.00
2022-10-13T21:41:14.725Z,100.00
2022-10-13T21:43:59.960Z,100.00
2022-10-13T21:46:44.736Z,100.00
2022-10-13T21:49:29.783Z,100.00
2022-10-13T21:52:15.397Z,100.00
2022-10-13T21:55:00.434Z,100.00
2022-10-13T21:57:45.840Z,100.00
2022-10-13T22:00:30.923Z,100.00
2022-10-13T22:03:16.280Z,100.00
2022-10-13T22:06:05.999Z,100.00
2022-10-13T22:08:53.247Z,100.00
2022-10-13T22:11:39.101Z,100.00
2022-10-13T22:14:25.213Z,100.00
2022-10-13T22:17:10.373Z,100.00
2022-10-13T22:19:55.720Z,100.00
2022-10-13T22:22:40.584Z,100.00
2022-10-13T22:25:25.500Z,100.00
2022-10-13T22:28:10.404Z,100.00
2022-10-13T22:30:55.227Z,100.00
2022-10-13T22:33:42.555Z,100.00
2022-10-13T22:36:28.310Z,100.00
2022-10-13T22:39:14.418Z,100.00
2022-10-13T22:41:59.706Z,100.00
2022-10-13T22:44:44.753Z,100.00
2022-10-13T22:47:29.995Z,100.00
2022-10-13T22:50:15.220Z,100.00
2022-10-13T22:53:00.301Z,100.00
2022-10-13T22:55:45.292Z,100.00
2022-10-13T22:58:30.919Z,100.00
2022-10-13T23:01:16.119Z,100.00
2022-10-13T23:04:01.476Z,100.00
2022-10-13T23:06:46.510Z,100.00
2022-10-13T23:09:31.889Z,100.00
2022-10-13T23:12:16.844Z,100.00
2022-10-13T23:15:01.750Z,100.00
2022-10-13T23:17:46.751Z,100.00
2022-10-13T23:20:32.398Z,100.00
2022-10-13T23:23:17.559Z,100.00
2022-10-13T23:26:12.638Z,100.00
2022-10-13T23:28:58.485Z,100.00
2022-10-13T23:31:43.623Z,100.00
2022-10-13T23:34:28.698Z,100.00
2022-10-13T23:37:13.586Z,100.00
2022-10-13T23:39:58.972Z,100.00
2022-10-13T23:42:44.302Z,100.00
2022-10-13T23:45:29.257Z,100.00
2022-10-13T23:48:15.452Z,100.00
2022-10-13T23:51:09.615Z,100.00
2022-10-13T23:53:55.625Z,100.00
2022-10-13T23:56:40.954Z,100.00
2022-10-13T23:59:26.042Z,100.00
